sensor_id;sensor_type;location;lat;lon;timestamp;P1;durP1;ratioP1;P2;durP2;ratioP2
4268;SDS011;2148;48.554;7.834;2023-03-11T00:02:14;3.07;;;1.80;;
4268;SDS011;2148;48.554;7.834;2023-03-11T00:04:40;2.10;;;1.87;;
4268;SDS011;2148;48.554;7.834;2023-03-11T00:07:06;2.40;;;2.20;;
4268;SDS011;2148;48.554;7.834;2023-03-11T00:09:32;3.60;;;2.30;;
4268;SDS011;2148;48.554;7.834;2023-03-11T00:11:58;3.20;;;2.50;;
4268;SDS011;2148;48.554;7.834;2023-03-11T00:14:23;3.73;;;2.10;;
4268;SDS011;2148;48.554;7.834;2023-03-11T00:16:48;2.93;;;2.00;;
4268;SDS011;2148;48.554;7.834;2023-03-11T00:19:14;3.70;;;2.37;;
4268;SDS011;2148;48.554;7.834;2023-03-11T00:21:39;2.60;;;2.30;;
4268;SDS011;2148;48.554;7.834;2023-03-11T00:24:04;2.63;;;2.43;;
4268;SDS011;2148;48.554;7.834;2023-03-11T00:26:30;3.30;;;2.20;;
4268;SDS011;2148;48.554;7.834;2023-03-11T00:28:55;4.13;;;2.10;;
4268;SDS011;2148;48.554;7.834;2023-03-11T00:31:20;2.40;;;2.07;;
4268;SDS011;2148;48.554;7.834;2023-03-11T00:33:46;2.93;;;1.90;;
4268;SDS011;2148;48.554;7.834;2023-03-11T00:38:55;2.23;;;2.03;;
4268;SDS011;2148;48.554;7.834;2023-03-11T00:41:21;3.57;;;2.10;;
4268;SDS011;2148;48.554;7.834;2023-03-11T00:43:46;2.60;;;2.00;;
4268;SDS011;2148;48.554;7.834;2023-03-11T00:46:12;2.23;;;2.03;;
4268;SDS011;2148;48.554;7.834;2023-03-11T00:48:37;2.43;;;2.23;;
4268;SDS011;2148;48.554;7.834;2023-03-11T00:51:02;2.63;;;2.00;;
4268;SDS011;2148;48.554;7.834;2023-03-11T00:53:28;4.60;;;2.30;;
4268;SDS011;2148;48.554;7.834;2023-03-11T00:55:53;3.87;;;2.30;;
4268;SDS011;2148;48.554;7.834;2023-03-11T00:58:19;3.63;;;2.30;;
4268;SDS011;2148;48.554;7.834;2023-03-11T01:00:44;3.10;;;2.10;;
4268;SDS011;2148;48.554;7.834;2023-03-11T01:03:09;5.43;;;2.20;;
4268;SDS011;2148;48.554;7.834;2023-03-11T01:05:35;3.57;;;2.10;;
4268;SDS011;2148;48.554;7.834;2023-03-11T01:08:00;2.17;;;1.87;;
4268;SDS011;2148;48.554;7.834;2023-03-11T01:10:27;2.67;;;2.20;;
4268;SDS011;2148;48.554;7.834;2023-03-11T01:12:53;3.93;;;2.33;;
4268;SDS011;2148;48.554;7.834;2023-03-11T01:15:20;4.87;;;2.33;;
4268;SDS011;2148;48.554;7.834;2023-03-11T01:17:56;3.50;;;2.30;;
4268;SDS011;2148;48.554;7.834;2023-03-11T01:20:21;3.10;;;2.50;;
4268;SDS011;2148;48.554;7.834;2023-03-11T01:22:46;2.83;;;2.63;;
4268;SDS011;2148;48.554;7.834;2023-03-11T01:25:13;2.83;;;2.53;;
4268;SDS011;2148;48.554;7.834;2023-03-11T01:27:39;3.60;;;2.70;;
4268;SDS011;2148;48.554;7.834;2023-03-11T01:30:05;2.63;;;2.30;;
4268;SDS011;2148;48.554;7.834;2023-03-11T01:32:31;2.73;;;2.53;;
4268;SDS011;2148;48.554;7.834;2023-03-11T01:34:56;2.63;;;2.20;;
4268;SDS011;2148;48.554;7.834;2023-03-11T01:37:21;4.30;;;2.70;;
4268;SDS011;2148;48.554;7.834;2023-03-11T01:39:47;2.77;;;2.40;;
4268;SDS011;2148;48.554;7.834;2023-03-11T01:42:12;3.47;;;2.50;;
4268;SDS011;2148;48.554;7.834;2023-03-11T01:44:37;3.73;;;2.37;;
4268;SDS011;2148;48.554;7.834;2023-03-11T01:49:28;4.40;;;2.70;;
4268;SDS011;2148;48.554;7.834;2023-03-11T01:51:54;2.87;;;2.60;;
4268;SDS011;2148;48.554;7.834;2023-03-11T01:54:32;2.83;;;2.53;;
4268;SDS011;2148;48.554;7.834;2023-03-11T01:56:59;2.60;;;2.40;;
4268;SDS011;2148;48.554;7.834;2023-03-11T01:59:26;5.17;;;2.40;;
4268;SDS011;2148;48.554;7.834;2023-03-11T02:01:58;2.93;;;2.30;;
4268;SDS011;2148;48.554;7.834;2023-03-11T02:04:29;3.00;;;2.20;;
4268;SDS011;2148;48.554;7.834;2023-03-11T02:06:58;4.03;;;2.27;;
4268;SDS011;2148;48.554;7.834;2023-03-11T02:09:24;5.37;;;2.40;;
4268;SDS011;2148;48.554;7.834;2023-03-11T02:11:50;2.97;;;2.50;;
4268;SDS011;2148;48.554;7.834;2023-03-11T02:14:16;2.93;;;2.20;;
4268;SDS011;2148;48.554;7.834;2023-03-11T02:16:41;4.07;;;2.50;;
4268;SDS011;2148;48.554;7.834;2023-03-11T02:19:19;4.90;;;2.37;;
4268;SDS011;2148;48.554;7.834;2023-03-11T02:21:51;2.90;;;2.70;;
4268;SDS011;2148;48.554;7.834;2023-03-11T02:27:19;4.10;;;2.30;;
4268;SDS011;2148;48.554;7.834;2023-03-11T02:29:46;2.47;;;2.27;;
4268;SDS011;2148;48.554;7.834;2023-03-11T02:32:13;2.90;;;2.30;;
4268;SDS011;2148;48.554;7.834;2023-03-11T02:34:39;4.00;;;2.70;;
4268;SDS011;2148;48.554;7.834;2023-03-11T02:37:09;3.30;;;2.23;;
4268;SDS011;2148;48.554;7.834;2023-03-11T02:39:37;4.87;;;2.90;;
4268;SDS011;2148;48.554;7.834;2023-03-11T02:42:05;3.53;;;2.60;;
4268;SDS011;2148;48.554;7.834;2023-03-11T02:44:32;3.50;;;2.87;;
4268;SDS011;2148;48.554;7.834;2023-03-11T02:46:58;4.03;;;2.63;;
4268;SDS011;2148;48.554;7.834;2023-03-11T02:49:23;4.27;;;2.63;;
4268;SDS011;2148;48.554;7.834;2023-03-11T02:51:49;4.50;;;2.23;;
4268;SDS011;2148;48.554;7.834;2023-03-11T02:54:14;3.67;;;2.10;;
4268;SDS011;2148;48.554;7.834;2023-03-11T02:56:40;4.27;;;2.10;;
4268;SDS011;2148;48.554;7.834;2023-03-11T02:59:05;2.83;;;2.30;;
4268;SDS011;2148;48.554;7.834;2023-03-11T03:01:30;2.53;;;2.33;;
4268;SDS011;2148;48.554;7.834;2023-03-11T03:03:56;3.17;;;2.50;;
4268;SDS011;2148;48.554;7.834;2023-03-11T03:06:21;4.13;;;2.10;;
4268;SDS011;2148;48.554;7.834;2023-03-11T03:08:46;3.90;;;2.30;;
4268;SDS011;2148;48.554;7.834;2023-03-11T03:11:12;2.57;;;2.37;;
4268;SDS011;2148;48.554;7.834;2023-03-11T03:13:37;2.37;;;2.17;;
4268;SDS011;2148;48.554;7.834;2023-03-11T03:16:02;3.10;;;2.40;;
4268;SDS011;2148;48.554;7.834;2023-03-11T03:18:28;2.43;;;2.23;;
4268;SDS011;2148;48.554;7.834;2023-03-11T03:20:53;2.23;;;2.03;;
4268;SDS011;2148;48.554;7.834;2023-03-11T03:23:19;2.37;;;2.10;;
4268;SDS011;2148;48.554;7.834;2023-03-11T03:25:44;2.30;;;2.10;;
4268;SDS011;2148;48.554;7.834;2023-03-11T03:28:10;4.60;;;2.20;;
4268;SDS011;2148;48.554;7.834;2023-03-11T03:30:36;4.73;;;2.40;;
4268;SDS011;2148;48.554;7.834;2023-03-11T03:33:02;3.87;;;2.33;;
4268;SDS011;2148;48.554;7.834;2023-03-11T03:35:27;2.30;;;2.10;;
4268;SDS011;2148;48.554;7.834;2023-03-11T03:37:52;3.53;;;2.00;;
4268;SDS011;2148;48.554;7.834;2023-03-11T03:40:19;2.70;;;1.73;;
4268;SDS011;2148;48.554;7.834;2023-03-11T03:42:44;2.40;;;1.80;;
4268;SDS011;2148;48.554;7.834;2023-03-11T03:45:09;2.40;;;2.10;;
4268;SDS011;2148;48.554;7.834;2023-03-11T03:47:35;2.57;;;2.27;;
4268;SDS011;2148;48.554;7.834;2023-03-11T03:50:01;3.60;;;1.80;;
4268;SDS011;2148;48.554;7.834;2023-03-11T03:52:30;3.80;;;2.23;;
4268;SDS011;2148;48.554;7.834;2023-03-11T03:54:56;3.63;;;2.13;;
4268;SDS011;2148;48.554;7.834;2023-03-11T03:57:21;3.77;;;2.00;;
4268;SDS011;2148;48.554;7.834;2023-03-11T03:59:46;2.87;;;1.93;;
4268;SDS011;2148;48.554;7.834;2023-03-11T04:02:11;4.00;;;2.10;;
4268;SDS011;2148;48.554;7.834;2023-03-11T04:04:37;2.37;;;2.00;;
4268;SDS011;2148;48.554;7.834;2023-03-11T04:07:03;2.87;;;2.00;;
4268;SDS011;2148;48.554;7.834;2023-03-11T04:09:30;2.93;;;2.10;;
4268;SDS011;2148;48.554;7.834;2023-03-11T04:11:55;2.47;;;2.10;;
4268;SDS011;2148;48.554;7.834;2023-03-11T04:14:21;2.60;;;1.93;;
4268;SDS011;2148;48.554;7.834;2023-03-11T04:16:46;2.83;;;2.20;;
4268;SDS011;2148;48.554;7.834;2023-03-11T04:19:11;3.27;;;2.30;;
4268;SDS011;2148;48.554;7.834;2023-03-11T04:21:37;3.20;;;2.20;;
4268;SDS011;2148;48.554;7.834;2023-03-11T04:24:02;2.77;;;2.47;;
4268;SDS011;2148;48.554;7.834;2023-03-11T04:26:27;6.17;;;2.77;;
4268;SDS011;2148;48.554;7.834;2023-03-11T04:28:52;3.97;;;2.37;;
4268;SDS011;2148;48.554;7.834;2023-03-11T04:31:18;5.63;;;2.53;;
4268;SDS011;2148;48.554;7.834;2023-03-11T04:33:43;2.53;;;2.20;;
4268;SDS011;2148;48.554;7.834;2023-03-11T04:36:08;4.43;;;1.93;;
4268;SDS011;2148;48.554;7.834;2023-03-11T04:38:34;4.47;;;2.03;;
4268;SDS011;2148;48.554;7.834;2023-03-11T04:41:00;2.23;;;2.03;;
4268;SDS011;2148;48.554;7.834;2023-03-11T04:43:26;4.70;;;2.63;;
4268;SDS011;2148;48.554;7.834;2023-03-11T04:45:51;5.33;;;2.43;;
4268;SDS011;2148;48.554;7.834;2023-03-11T04:48:16;4.13;;;2.50;;
4268;SDS011;2148;48.554;7.834;2023-03-11T04:50:42;5.37;;;2.50;;
4268;SDS011;2148;48.554;7.834;2023-03-11T04:53:07;4.80;;;2.00;;
4268;SDS011;2148;48.554;7.834;2023-03-11T04:55:32;4.93;;;2.30;;
4268;SDS011;2148;48.554;7.834;2023-03-11T04:57:57;3.60;;;2.10;;
4268;SDS011;2148;48.554;7.834;2023-03-11T05:00:23;2.90;;;1.93;;
4268;SDS011;2148;48.554;7.834;2023-03-11T05:02:49;2.67;;;2.43;;
4268;SDS011;2148;48.554;7.834;2023-03-11T05:05:14;6.10;;;2.70;;
4268;SDS011;2148;48.554;7.834;2023-03-11T05:07:40;2.80;;;2.20;;
4268;SDS011;2148;48.554;7.834;2023-03-11T05:10:05;3.37;;;2.73;;
4268;SDS011;2148;48.554;7.834;2023-03-11T05:12:31;4.70;;;2.23;;
4268;SDS011;2148;48.554;7.834;2023-03-11T05:14:57;2.30;;;2.10;;
4268;SDS011;2148;48.554;7.834;2023-03-11T05:17:22;3.47;;;2.40;;
4268;SDS011;2148;48.554;7.834;2023-03-11T05:19:48;2.57;;;2.03;;
4268;SDS011;2148;48.554;7.834;2023-03-11T05:22:14;5.03;;;2.40;;
4268;SDS011;2148;48.554;7.834;2023-03-11T05:24:39;2.93;;;2.20;;
4268;SDS011;2148;48.554;7.834;2023-03-11T05:27:05;3.00;;;2.13;;
4268;SDS011;2148;48.554;7.834;2023-03-11T05:29:30;4.13;;;2.40;;
4268;SDS011;2148;48.554;7.834;2023-03-11T05:31:55;3.87;;;2.43;;
4268;SDS011;2148;48.554;7.834;2023-03-11T05:34:21;5.00;;;2.17;;
4268;SDS011;2148;48.554;7.834;2023-03-11T05:36:46;4.50;;;2.10;;
4268;SDS011;2148;48.554;7.834;2023-03-11T05:39:11;2.53;;;2.00;;
4268;SDS011;2148;48.554;7.834;2023-03-11T05:41:37;4.57;;;2.17;;
4268;SDS011;2148;48.554;7.834;2023-03-11T05:44:02;4.20;;;2.20;;
4268;SDS011;2148;48.554;7.834;2023-03-11T05:46:27;4.00;;;2.10;;
4268;SDS011;2148;48.554;7.834;2023-03-11T05:48:53;4.83;;;2.30;;
4268;SDS011;2148;48.554;7.834;2023-03-11T05:51:18;3.43;;;2.10;;
4268;SDS011;2148;48.554;7.834;2023-03-11T05:53:44;4.87;;;2.67;;
4268;SDS011;2148;48.554;7.834;2023-03-11T05:56:12;3.67;;;2.10;;
4268;SDS011;2148;48.554;7.834;2023-03-11T05:58:41;2.87;;;2.10;;
4268;SDS011;2148;48.554;7.834;2023-03-11T06:01:07;4.23;;;2.30;;
4268;SDS011;2148;48.554;7.834;2023-03-11T06:03:36;3.43;;;2.43;;
4268;SDS011;2148;48.554;7.834;2023-03-11T06:06:03;4.60;;;2.53;;
4268;SDS011;2148;48.554;7.834;2023-03-11T06:08:29;4.50;;;2.33;;
4268;SDS011;2148;48.554;7.834;2023-03-11T06:10:59;5.43;;;2.60;;
4268;SDS011;2148;48.554;7.834;2023-03-11T06:13:28;3.43;;;2.60;;
4268;SDS011;2148;48.554;7.834;2023-03-11T06:15:54;4.97;;;3.10;;
4268;SDS011;2148;48.554;7.834;2023-03-11T06:18:19;10.73;;;5.73;;
4268;SDS011;2148;48.554;7.834;2023-03-11T06:20:44;9.53;;;5.33;;
4268;SDS011;2148;48.554;7.834;2023-03-11T06:23:09;10.97;;;5.93;;
4268;SDS011;2148;48.554;7.834;2023-03-11T06:25:34;8.87;;;5.50;;
4268;SDS011;2148;48.554;7.834;2023-03-11T06:28:00;8.43;;;5.50;;
4268;SDS011;2148;48.554;7.834;2023-03-11T06:30:25;8.37;;;3.93;;
4268;SDS011;2148;48.554;7.834;2023-03-11T06:32:50;5.53;;;3.20;;
4268;SDS011;2148;48.554;7.834;2023-03-11T06:35:16;4.23;;;2.80;;
4268;SDS011;2148;48.554;7.834;2023-03-11T06:37:41;5.93;;;2.93;;
4268;SDS011;2148;48.554;7.834;2023-03-11T06:40:07;2.60;;;2.40;;
4268;SDS011;2148;48.554;7.834;2023-03-11T06:42:33;4.10;;;2.60;;
4268;SDS011;2148;48.554;7.834;2023-03-11T06:44:59;3.93;;;2.53;;
4268;SDS011;2148;48.554;7.834;2023-03-11T06:47:24;2.83;;;2.60;;
4268;SDS011;2148;48.554;7.834;2023-03-11T06:49:50;4.43;;;3.07;;
4268;SDS011;2148;48.554;7.834;2023-03-11T06:52:16;2.90;;;2.33;;
4268;SDS011;2148;48.554;7.834;2023-03-11T06:54:41;4.57;;;2.47;;
4268;SDS011;2148;48.554;7.834;2023-03-11T06:57:07;5.47;;;2.63;;
4268;SDS011;2148;48.554;7.834;2023-03-11T06:59:33;6.40;;;2.90;;
4268;SDS011;2148;48.554;7.834;2023-03-11T07:01:58;5.53;;;2.83;;
4268;SDS011;2148;48.554;7.834;2023-03-11T07:04:24;5.07;;;2.33;;
4268;SDS011;2148;48.554;7.834;2023-03-11T07:06:49;4.93;;;2.40;;
4268;SDS011;2148;48.554;7.834;2023-03-11T07:09:14;8.50;;;2.77;;
4268;SDS011;2148;48.554;7.834;2023-03-11T07:11:40;5.63;;;2.83;;
4268;SDS011;2148;48.554;7.834;2023-03-11T07:14:05;5.23;;;2.40;;
4268;SDS011;2148;48.554;7.834;2023-03-11T07:16:30;6.53;;;2.50;;
4268;SDS011;2148;48.554;7.834;2023-03-11T07:18:57;4.67;;;2.40;;
4268;SDS011;2148;48.554;7.834;2023-03-11T07:21:25;4.17;;;2.30;;
4268;SDS011;2148;48.554;7.834;2023-03-11T07:23:54;3.73;;;2.30;;
4268;SDS011;2148;48.554;7.834;2023-03-11T07:26:21;5.30;;;2.53;;
4268;SDS011;2148;48.554;7.834;2023-03-11T07:28:47;10.70;;;2.87;;
4268;SDS011;2148;48.554;7.834;2023-03-11T07:31:17;4.67;;;2.63;;
4268;SDS011;2148;48.554;7.834;2023-03-11T07:33:43;5.40;;;2.57;;
4268;SDS011;2148;48.554;7.834;2023-03-11T07:36:13;6.27;;;2.73;;
4268;SDS011;2148;48.554;7.834;2023-03-11T07:38:40;4.70;;;2.37;;
4268;SDS011;2148;48.554;7.834;2023-03-11T07:41:06;5.80;;;2.30;;
4268;SDS011;2148;48.554;7.834;2023-03-11T07:43:32;4.83;;;2.80;;
4268;SDS011;2148;48.554;7.834;2023-03-11T07:46:02;4.90;;;2.53;;
4268;SDS011;2148;48.554;7.834;2023-03-11T07:48:31;4.23;;;2.20;;
4268;SDS011;2148;48.554;7.834;2023-03-11T07:51:03;6.10;;;2.50;;
4268;SDS011;2148;48.554;7.834;2023-03-11T07:53:34;5.40;;;2.43;;
4268;SDS011;2148;48.554;7.834;2023-03-11T07:56:00;4.77;;;2.63;;
4268;SDS011;2148;48.554;7.834;2023-03-11T07:58:26;5.47;;;2.90;;
4268;SDS011;2148;48.554;7.834;2023-03-11T08:00:52;6.77;;;2.93;;
4268;SDS011;2148;48.554;7.834;2023-03-11T08:03:19;4.53;;;2.33;;
4268;SDS011;2148;48.554;7.834;2023-03-11T08:05:44;2.93;;;2.10;;
4268;SDS011;2148;48.554;7.834;2023-03-11T08:08:09;3.80;;;2.20;;
4268;SDS011;2148;48.554;7.834;2023-03-11T08:10:35;5.80;;;2.30;;
4268;SDS011;2148;48.554;7.834;2023-03-11T08:13:01;10.33;;;6.00;;
4268;SDS011;2148;48.554;7.834;2023-03-11T08:15:27;12.10;;;3.53;;
4268;SDS011;2148;48.554;7.834;2023-03-11T08:17:52;3.73;;;2.33;;
4268;SDS011;2148;48.554;7.834;2023-03-11T08:20:18;6.70;;;2.93;;
4268;SDS011;2148;48.554;7.834;2023-03-11T08:22:43;2.73;;;2.20;;
4268;SDS011;2148;48.554;7.834;2023-03-11T08:25:08;2.97;;;2.57;;
4268;SDS011;2148;48.554;7.834;2023-03-11T08:27:34;5.73;;;2.60;;
4268;SDS011;2148;48.554;7.834;2023-03-11T08:29:59;4.97;;;2.33;;
4268;SDS011;2148;48.554;7.834;2023-03-11T08:32:24;5.43;;;2.90;;
4268;SDS011;2148;48.554;7.834;2023-03-11T08:34:49;4.03;;;2.03;;
4268;SDS011;2148;48.554;7.834;2023-03-11T08:37:15;8.13;;;2.77;;
4268;SDS011;2148;48.554;7.834;2023-03-11T08:39:40;5.27;;;2.77;;
4268;SDS011;2148;48.554;7.834;2023-03-11T08:42:05;5.63;;;2.70;;
4268;SDS011;2148;48.554;7.834;2023-03-11T08:44:30;5.43;;;2.50;;
4268;SDS011;2148;48.554;7.834;2023-03-11T08:46:56;4.70;;;2.23;;
4268;SDS011;2148;48.554;7.834;2023-03-11T08:49:21;4.57;;;2.70;;
4268;SDS011;2148;48.554;7.834;2023-03-11T08:51:46;11.47;;;2.73;;
4268;SDS011;2148;48.554;7.834;2023-03-11T08:54:11;6.13;;;2.50;;
4268;SDS011;2148;48.554;7.834;2023-03-11T08:56:37;6.43;;;2.43;;
4268;SDS011;2148;48.554;7.834;2023-03-11T08:59:02;3.83;;;2.37;;
4268;SDS011;2148;48.554;7.834;2023-03-11T09:01:27;4.00;;;2.63;;
4268;SDS011;2148;48.554;7.834;2023-03-11T09:03:54;7.13;;;2.70;;
4268;SDS011;2148;48.554;7.834;2023-03-11T09:06:19;5.37;;;2.40;;
4268;SDS011;2148;48.554;7.834;2023-03-11T09:08:45;6.87;;;2.60;;
4268;SDS011;2148;48.554;7.834;2023-03-11T09:11:13;6.77;;;2.90;;
4268;SDS011;2148;48.554;7.834;2023-03-11T09:13:39;7.97;;;2.23;;
4268;SDS011;2148;48.554;7.834;2023-03-11T09:16:06;11.20;;;3.40;;
4268;SDS011;2148;48.554;7.834;2023-03-11T09:18:33;6.40;;;2.20;;
4268;SDS011;2148;48.554;7.834;2023-03-11T09:20:59;7.77;;;3.27;;
4268;SDS011;2148;48.554;7.834;2023-03-11T09:23:24;5.47;;;2.50;;
4268;SDS011;2148;48.554;7.834;2023-03-11T09:25:49;2.27;;;1.97;;
4268;SDS011;2148;48.554;7.834;2023-03-11T09:28:15;3.23;;;2.30;;
4268;SDS011;2148;48.554;7.834;2023-03-11T09:30:40;3.90;;;2.37;;
4268;SDS011;2148;48.554;7.834;2023-03-11T09:33:05;4.13;;;2.20;;
4268;SDS011;2148;48.554;7.834;2023-03-11T09:35:31;3.47;;;2.10;;
4268;SDS011;2148;48.554;7.834;2023-03-11T09:37:56;5.20;;;2.47;;
4268;SDS011;2148;48.554;7.834;2023-03-11T09:40:22;3.83;;;2.03;;
4268;SDS011;2148;48.554;7.834;2023-03-11T09:42:50;6.17;;;2.30;;
4268;SDS011;2148;48.554;7.834;2023-03-11T09:45:26;5.37;;;2.50;;
4268;SDS011;2148;48.554;7.834;2023-03-11T09:47:58;2.60;;;1.90;;
4268;SDS011;2148;48.554;7.834;2023-03-11T09:50:41;3.53;;;2.00;;
4268;SDS011;2148;48.554;7.834;2023-03-11T09:56:09;6.20;;;2.30;;
4268;SDS011;2148;48.554;7.834;2023-03-11T10:03:52;3.87;;;2.70;;
4268;SDS011;2148;48.554;7.834;2023-03-11T10:06:20;6.60;;;2.40;;
4268;SDS011;2148;48.554;7.834;2023-03-11T10:09:01;3.97;;;2.30;;
4268;SDS011;2148;48.554;7.834;2023-03-11T10:11:47;5.30;;;2.33;;
4268;SDS011;2148;48.554;7.834;2023-03-11T10:17:25;4.63;;;2.60;;
4268;SDS011;2148;48.554;7.834;2023-03-11T10:20:33;3.93;;;2.57;;
4268;SDS011;2148;48.554;7.834;2023-03-11T10:28:35;4.67;;;2.33;;
4268;SDS011;2148;48.554;7.834;2023-03-11T10:33:55;3.83;;;2.33;;
4268;SDS011;2148;48.554;7.834;2023-03-11T10:36:25;4.83;;;2.40;;
4268;SDS011;2148;48.554;7.834;2023-03-11T10:38:59;4.47;;;2.40;;
4268;SDS011;2148;48.554;7.834;2023-03-11T10:41:27;4.77;;;2.50;;
4268;SDS011;2148;48.554;7.834;2023-03-11T10:44:08;4.00;;;2.40;;
4268;SDS011;2148;48.554;7.834;2023-03-11T10:46:41;4.27;;;2.60;;
4268;SDS011;2148;48.554;7.834;2023-03-11T10:49:13;5.60;;;2.03;;
4268;SDS011;2148;48.554;7.834;2023-03-11T10:51:39;5.13;;;2.63;;
4268;SDS011;2148;48.554;7.834;2023-03-11T10:54:06;5.43;;;2.50;;
4268;SDS011;2148;48.554;7.834;2023-03-11T10:56:40;4.10;;;1.80;;
4268;SDS011;2148;48.554;7.834;2023-03-11T10:59:21;4.07;;;2.33;;
4268;SDS011;2148;48.554;7.834;2023-03-11T11:01:58;4.33;;;2.00;;
4268;SDS011;2148;48.554;7.834;2023-03-11T11:04:37;4.70;;;2.30;;
4268;SDS011;2148;48.554;7.834;2023-03-11T11:12:57;3.93;;;2.20;;
4268;SDS011;2148;48.554;7.834;2023-03-11T11:15:29;6.13;;;2.03;;
4268;SDS011;2148;48.554;7.834;2023-03-11T11:18:00;4.30;;;2.07;;
4268;SDS011;2148;48.554;7.834;2023-03-11T11:20:31;4.83;;;2.43;;
4268;SDS011;2148;48.554;7.834;2023-03-11T11:22:57;3.43;;;2.13;;
4268;SDS011;2148;48.554;7.834;2023-03-11T11:25:31;4.63;;;2.10;;
4268;SDS011;2148;48.554;7.834;2023-03-11T11:28:01;4.07;;;2.30;;
4268;SDS011;2148;48.554;7.834;2023-03-11T11:30:29;5.50;;;2.60;;
4268;SDS011;2148;48.554;7.834;2023-03-11T11:32:54;4.43;;;1.93;;
4268;SDS011;2148;48.554;7.834;2023-03-11T11:35:21;3.27;;;2.10;;
4268;SDS011;2148;48.554;7.834;2023-03-11T11:37:49;4.43;;;2.17;;
4268;SDS011;2148;48.554;7.834;2023-03-11T11:40:18;3.07;;;2.33;;
4268;SDS011;2148;48.554;7.834;2023-03-11T11:42:49;5.20;;;2.33;;
4268;SDS011;2148;48.554;7.834;2023-03-11T11:45:23;2.67;;;2.10;;
4268;SDS011;2148;48.554;7.834;2023-03-11T11:47:54;2.30;;;1.93;;
4268;SDS011;2148;48.554;7.834;2023-03-11T11:50:35;5.60;;;2.20;;
4268;SDS011;2148;48.554;7.834;2023-03-11T11:53:12;2.87;;;2.30;;
4268;SDS011;2148;48.554;7.834;2023-03-11T11:55:46;2.77;;;2.10;;
4268;SDS011;2148;48.554;7.834;2023-03-11T11:58:12;3.37;;;2.20;;
4268;SDS011;2148;48.554;7.834;2023-03-11T12:06:31;4.20;;;2.27;;
4268;SDS011;2148;48.554;7.834;2023-03-11T12:09:02;2.47;;;1.90;;
4268;SDS011;2148;48.554;7.834;2023-03-11T12:11:38;3.63;;;2.00;;
4268;SDS011;2148;48.554;7.834;2023-03-11T12:14:11;6.73;;;2.60;;
4268;SDS011;2148;48.554;7.834;2023-03-11T12:16:50;3.60;;;2.10;;
4268;SDS011;2148;48.554;7.834;2023-03-11T12:21:58;4.90;;;2.40;;
4268;SDS011;2148;48.554;7.834;2023-03-11T12:24:46;3.77;;;2.13;;
4268;SDS011;2148;48.554;7.834;2023-03-11T12:29:59;2.47;;;1.90;;
4268;SDS011;2148;48.554;7.834;2023-03-11T12:32:31;3.97;;;2.30;;
4268;SDS011;2148;48.554;7.834;2023-03-11T12:35:02;3.17;;;2.30;;
4268;SDS011;2148;48.554;7.834;2023-03-11T12:46:03;2.93;;;2.63;;
4268;SDS011;2148;48.554;7.834;2023-03-11T12:48:44;4.47;;;2.00;;
4268;SDS011;2148;48.554;7.834;2023-03-11T12:53:50;4.20;;;2.07;;
4268;SDS011;2148;48.554;7.834;2023-03-11T12:56:26;5.97;;;2.87;;
4268;SDS011;2148;48.554;7.834;2023-03-11T12:59:08;5.57;;;2.20;;
4268;SDS011;2148;48.554;7.834;2023-03-11T13:07:24;5.30;;;2.73;;
4268;SDS011;2148;48.554;7.834;2023-03-11T13:12:41;4.67;;;2.30;;
4268;SDS011;2148;48.554;7.834;2023-03-11T13:25:39;4.27;;;2.13;;
4268;SDS011;2148;48.554;7.834;2023-03-11T13:33:51;4.47;;;2.17;;
4268;SDS011;2148;48.554;7.834;2023-03-11T13:36:20;6.30;;;2.53;;
4268;SDS011;2148;48.554;7.834;2023-03-11T13:38:57;3.83;;;2.53;;
4268;SDS011;2148;48.554;7.834;2023-03-11T13:41:34;5.33;;;2.70;;
4268;SDS011;2148;48.554;7.834;2023-03-11T13:44:12;2.97;;;2.07;;
4268;SDS011;2148;48.554;7.834;2023-03-11T13:46:41;4.93;;;2.60;;
4268;SDS011;2148;48.554;7.834;2023-03-11T13:49:13;4.13;;;2.87;;
4268;SDS011;2148;48.554;7.834;2023-03-11T13:51:42;3.10;;;2.47;;
4268;SDS011;2148;48.554;7.834;2023-03-11T13:57:04;4.70;;;2.13;;
4268;SDS011;2148;48.554;7.834;2023-03-11T13:59:31;3.67;;;2.47;;
4268;SDS011;2148;48.554;7.834;2023-03-11T14:02:10;4.23;;;2.40;;
4268;SDS011;2148;48.554;7.834;2023-03-11T14:04:49;3.23;;;2.20;;
4268;SDS011;2148;48.554;7.834;2023-03-11T14:07:30;6.43;;;3.27;;
4268;SDS011;2148;48.554;7.834;2023-03-11T14:12:35;4.10;;;2.50;;
4268;SDS011;2148;48.554;7.834;2023-03-11T14:15:01;5.83;;;2.80;;
4268;SDS011;2148;48.554;7.834;2023-03-11T14:17:28;3.30;;;2.40;;
4268;SDS011;2148;48.554;7.834;2023-03-11T14:22:53;5.50;;;2.30;;
4268;SDS011;2148;48.554;7.834;2023-03-11T14:25:25;2.87;;;2.40;;
4268;SDS011;2148;48.554;7.834;2023-03-11T14:27:55;4.30;;;2.57;;
4268;SDS011;2148;48.554;7.834;2023-03-11T14:30:23;3.30;;;2.07;;
4268;SDS011;2148;48.554;7.834;2023-03-11T14:35:53;3.13;;;2.20;;
4268;SDS011;2148;48.554;7.834;2023-03-11T14:38:24;3.43;;;2.30;;
4268;SDS011;2148;48.554;7.834;2023-03-11T14:40:52;2.90;;;2.60;;
4268;SDS011;2148;48.554;7.834;2023-03-11T14:43:19;2.97;;;2.33;;
4268;SDS011;2148;48.554;7.834;2023-03-11T14:45:45;2.97;;;2.40;;
4268;SDS011;2148;48.554;7.834;2023-03-11T14:48:12;7.13;;;2.87;;
4268;SDS011;2148;48.554;7.834;2023-03-11T14:50:40;4.80;;;2.50;;
4268;SDS011;2148;48.554;7.834;2023-03-11T14:55:41;5.00;;;2.87;;
4268;SDS011;2148;48.554;7.834;2023-03-11T14:58:12;5.13;;;2.50;;
4268;SDS011;2148;48.554;7.834;2023-03-11T15:00:41;5.40;;;2.47;;
4268;SDS011;2148;48.554;7.834;2023-03-11T15:03:13;4.63;;;2.60;;
4268;SDS011;2148;48.554;7.834;2023-03-11T15:05:49;3.57;;;2.43;;
4268;SDS011;2148;48.554;7.834;2023-03-11T15:08:17;3.60;;;2.90;;
4268;SDS011;2148;48.554;7.834;2023-03-11T15:11:44;3.60;;;2.77;;
4268;SDS011;2148;48.554;7.834;2023-03-11T15:13:40;3.67;;;2.60;;
4268;SDS011;2148;48.554;7.834;2023-03-11T15:16:18;3.77;;;2.27;;
4268;SDS011;2148;48.554;7.834;2023-03-11T15:18:58;3.93;;;2.60;;
4268;SDS011;2148;48.554;7.834;2023-03-11T15:21:25;3.20;;;2.30;;
4268;SDS011;2148;48.554;7.834;2023-03-11T15:24:01;6.70;;;2.73;;
4268;SDS011;2148;48.554;7.834;2023-03-11T15:26:31;6.17;;;2.97;;
4268;SDS011;2148;48.554;7.834;2023-03-11T15:28:58;5.30;;;2.50;;
4268;SDS011;2148;48.554;7.834;2023-03-11T15:31:42;3.67;;;2.10;;
4268;SDS011;2148;48.554;7.834;2023-03-11T15:36:44;4.40;;;2.80;;
4268;SDS011;2148;48.554;7.834;2023-03-11T15:39:26;5.87;;;2.90;;
4268;SDS011;2148;48.554;7.834;2023-03-11T15:42:17;5.30;;;3.10;;
4268;SDS011;2148;48.554;7.834;2023-03-11T15:47:44;5.37;;;2.70;;
4268;SDS011;2148;48.554;7.834;2023-03-11T15:52:48;3.63;;;2.53;;
4268;SDS011;2148;48.554;7.834;2023-03-11T15:55:14;5.97;;;2.90;;
4268;SDS011;2148;48.554;7.834;2023-03-11T15:57:39;4.17;;;2.50;;
4268;SDS011;2148;48.554;7.834;2023-03-11T16:00:06;4.20;;;2.20;;
4268;SDS011;2148;48.554;7.834;2023-03-11T16:02:38;4.47;;;2.20;;
4268;SDS011;2148;48.554;7.834;2023-03-11T16:05:05;6.53;;;3.03;;
4268;SDS011;2148;48.554;7.834;2023-03-11T16:07:37;5.53;;;3.50;;
4268;SDS011;2148;48.554;7.834;2023-03-11T16:10:02;5.40;;;2.83;;
4268;SDS011;2148;48.554;7.834;2023-03-11T16:12:28;4.17;;;3.23;;
4268;SDS011;2148;48.554;7.834;2023-03-11T16:14:53;4.57;;;2.50;;
4268;SDS011;2148;48.554;7.834;2023-03-11T16:17:19;7.23;;;2.73;;
4268;SDS011;2148;48.554;7.834;2023-03-11T16:19:44;4.53;;;2.90;;
4268;SDS011;2148;48.554;7.834;2023-03-11T16:22:13;6.90;;;3.00;;
4268;SDS011;2148;48.554;7.834;2023-03-11T16:24:41;5.37;;;3.03;;
4268;SDS011;2148;48.554;7.834;2023-03-11T16:27:08;4.43;;;3.07;;
4268;SDS011;2148;48.554;7.834;2023-03-11T16:29:35;4.03;;;3.20;;
4268;SDS011;2148;48.554;7.834;2023-03-11T16:32:00;4.47;;;3.60;;
4268;SDS011;2148;48.554;7.834;2023-03-11T16:34:26;3.20;;;2.90;;
4268;SDS011;2148;48.554;7.834;2023-03-11T16:36:51;3.87;;;2.73;;
4268;SDS011;2148;48.554;7.834;2023-03-11T16:39:16;5.10;;;3.37;;
4268;SDS011;2148;48.554;7.834;2023-03-11T16:41:42;4.57;;;2.87;;
4268;SDS011;2148;48.554;7.834;2023-03-11T16:44:08;6.07;;;2.70;;
4268;SDS011;2148;48.554;7.834;2023-03-11T16:46:34;4.30;;;2.43;;
4268;SDS011;2148;48.554;7.834;2023-03-11T16:48:59;6.00;;;2.20;;
4268;SDS011;2148;48.554;7.834;2023-03-11T16:51:24;3.73;;;2.40;;
4268;SDS011;2148;48.554;7.834;2023-03-11T16:53:50;4.67;;;2.70;;
4268;SDS011;2148;48.554;7.834;2023-03-11T16:56:15;4.97;;;2.60;;
4268;SDS011;2148;48.554;7.834;2023-03-11T16:58:42;3.47;;;2.23;;
4268;SDS011;2148;48.554;7.834;2023-03-11T17:01:10;6.90;;;2.50;;
4268;SDS011;2148;48.554;7.834;2023-03-11T17:03:35;3.37;;;2.40;;